Latest Weather Observations for Bombala AWS

IDN60801

Issued at 3:33 pm EDT Sunday 21 December 2014 (issued every 30 minutes, with the page automatically refreshed every 10 minutes)

About weather observations | Map of weather stations | Latest weather observations for NSW | Other Formats
Station Details ID: 070328 Name: BOMBALA AWS Lat: -37.00 Lon: 149.23 Height: 760.5 m
Data from the previous 72 hours. | See also: Recent months at Bombala AWS
Date/Time
EDT
Temp
°C
App
Temp
°C
Dew
Point
Rel
Hum
%
Delta-T
°C
Wind Press
QNH
hPa
Press
MSL
hPa
Rain
since 9 am
mm
Dir
 
Spd
km/h
Gust
km/h
Spd
kts
Gust
kts
21/03:30pm 25.0 23.2 15.6 56 5.9 SSE 19 28 10 15 1016.5 1014.2 0.0
21/03:00pm 24.2 21.8 14.3 54 6.0 SE 20 30 11 16 1016.6 1014.3 0.0
21/02:30pm 24.4 21.8 13.3 50 6.7 SE 19 26 10 14 1016.6 1014.3 0.0
21/02:00pm 25.6 23.7 9.0 35 9.3 SSW 9 20 5 11 1016.6 1014.3 0.0
21/01:30pm 26.0 23.9 9.8 36 9.3 SSW 11 17 6 9 1016.8 1014.4 0.0
21/01:00pm 26.0 24.7 11.4 40 8.6 SW 9 19 5 10 1017.1 1014.7 0.0
21/12:30pm 24.5 23.5 11.1 43 7.8 WSW 7 20 4 11 1017.3 1015.0 0.0
21/12:00pm 23.8 22.4 12.1 48 6.9 WSW 11 17 6 9 1017.8 1015.5 0.0
21/11:30am 23.2 21.0 10.9 46 7.1 W 13 26 7 14 1017.7 1015.4 0.0
21/11:00am 22.9 20.6 10.3 45 7.2 W 13 22 7 12 1017.8 1015.5 0.0
21/10:30am 21.8 21.3 13.9 61 4.7 NNW 9 17 5 9 1018.0 1015.7 0.0
21/10:00am 20.6 20.0 14.5 68 3.7 NNW 11 17 6 9 1018.2 1015.8 0.0
21/09:30am 19.3 19.1 14.8 75 2.7 NNW 9 15 5 8 1018.5 1016.2 0.0
21/08:30am 14.6 14.6 13.6 94 0.6 NNW 6 9 3 5 1018.3 1015.9 0.0
21/08:00am 11.6 11.3 11.4 99 0.1 NNW 4 4 2 2 1018.0 1015.7 0.0
21/07:30am 10.0 9.3 10.0 100 0.0 NW 4 4 2 2 1018.2 1015.8 0.0
21/07:00am 8.8 8.5 8.8 100 0.0 CALM 0 0 0 0 1017.9 1015.6 0.0
21/06:30am 7.3 6.7 7.3 100 0.0 CALM 0 0 0 0 1017.9 1015.6 0.0
21/06:00am 6.2 5.3 6.2 100 0.0 CALM 0 0 0 0 1017.7 1015.4 0.0
21/05:30am 6.6 5.8 6.6 100 0.0 CALM 0 0 0 0 1017.6 1015.3 0.0
21/05:00am 6.6 5.8 6.6 100 0.0 CALM 0 2 0 1 1017.7 1015.4 0.0
21/04:30am 6.8 5.3 6.8 100 0.0 NW 4 4 2 2 1017.6 1015.3 0.0
21/04:00am 6.7 5.9 6.7 100 0.0 CALM 0 0 0 0 1017.7 1015.4 0.0
21/03:30am 6.7 5.9 6.7 100 0.0 CALM 0 0 0 0 1017.9 1015.6 0.0
21/03:00am 7.4 6.0 7.4 100 0.0 NNW 4 6 2 3 1018.0 1015.7 0.0
21/02:30am 8.0 6.4 8.0 100 0.0 NW 6 6 3 3 1018.4 1016.0 0.0
21/02:00am 8.7 7.3 8.7 100 0.0 NW 6 6 3 3 1018.6 1016.3 0.0
21/01:30am 8.9 8.7 8.9 100 0.0 CALM 0 0 0 0 1018.7 1016.4 0.0
21/01:00am 8.6 8.3 8.6 100 0.0 CALM 0 0 0 0 1018.7 1016.4 0.0
21/12:30am 9.3 9.2 9.3 100 0.0 CALM 0 0 0 0 1018.9 1016.6 0.0
21/12:00am 9.2 9.0 9.1 99 0.1 CALM 0 0 0 0 1019.3 1017.0 0.0
 
Date/Time
EDT
Temp
°C
App
Temp
°C
Dew
Point
Rel
Hum
%
Delta-T
°C
Wind Press
QNH
hPa
Press
MSL
hPa
Rain
since 9 am
mm
Dir
 
Spd
km/h
Gust
km/h
Spd
kts
Gust
kts
20/11:30pm 9.6 9.5 9.5 99 0.1 CALM 0 0 0 0 1019.6 1017.3 0.0
20/11:00pm 9.7 9.6 9.6 99 0.1 CALM 0 0 0 0 1019.6 1017.3 0.0
20/10:30pm 10.3 10.4 10.0 98 0.2 CALM 0 2 0 1 1019.7 1017.4 0.0
20/10:00pm 11.2 10.7 10.6 96 0.3 NE 4 6 2 3 1019.6 1017.3 0.0
20/09:30pm 11.9 11.0 10.8 93 0.6 ENE 6 7 3 4 1019.4 1017.1 0.0
20/09:00pm 12.4 11.6 11.1 92 0.7 ENE 6 9 3 5 1019.0 1016.7 0.0
20/08:30pm 12.9 12.1 11.0 88 1.0 E 6 9 3 5 1018.9 1016.6 0.0
20/08:00pm 14.1 13.1 10.9 81 1.8 ENE 7 9 4 5 1018.7 1016.4 0.0
20/07:30pm 16.2 15.2 10.9 71 2.9 ESE 7 17 4 9 1018.3 1015.9 0.0
20/07:00pm 17.5 14.8 11.8 69 3.2 SSE 17 20 9 11 1018.0 1015.7 0.0
20/06:30pm 17.9 14.8 11.7 67 3.5 SE 19 26 10 14 1017.6 1015.3 0.0
20/06:00pm 18.7 15.7 11.8 64 3.9 SE 19 28 10 15 1017.4 1015.1 0.0
20/05:30pm 19.5 16.8 11.8 61 4.4 SE 17 24 9 13 1017.2 1014.8 0.0
20/05:00pm 19.2 16.5 11.7 62 4.3 ESE 17 24 9 13 1017.1 1014.7 0.0
20/04:30pm 18.9 15.6 11.0 60 4.5 E 19 28 10 15 1017.1 1014.7 0.0
20/04:00pm 21.1 18.4 11.7 55 5.4 ESE 17 24 9 13 1017.1 1014.7 0.0
20/03:30pm 20.0 17.0 10.7 55 5.2 SSE 17 22 9 12 1017.2 1014.8 0.0
20/03:00pm 20.3 18.7 10.1 52 5.7 SSE 9 22 5 12 1017.3 1015.0 0.0
20/02:30pm 21.8 21.1 12.1 54 5.7 S 7 13 4 7 1017.4 1015.1 0.0
20/02:00pm 21.1 19.0 11.2 53 5.7 SSE 13 20 7 11 1017.3 1015.0 0.0
20/01:30pm 20.9 18.9 12.6 59 4.9 SSE 15 28 8 15 1017.4 1015.1 0.0
20/01:00pm 19.7 17.9 9.3 51 5.7 SSW 9 19 5 10 1017.6 1015.3 0.0
20/12:30pm 19.6 18.1 9.2 51 5.7 SSE 7 13 4 7 1017.8 1015.5 0.0
20/12:00pm 19.5 18.1 9.4 52 5.5 W 7 13 4 7 1017.8 1015.5 0.0
20/11:30am 17.8 15.4 7.2 50 5.5 W 9 17 5 9 1017.9 1015.6 0.0
20/11:00am 16.7 14.0 7.4 54 4.8 WNW 11 17 6 9 1018.2 1015.8 0.0
20/10:30am 15.7 11.9 5.9 52 4.9 W 15 22 8 12 1018.3 1015.9 0.0
20/10:00am 14.8 12.3 6.6 58 4.1 WSW 9 17 5 9 1018.4 1016.0 0.0
20/09:30am 13.9 11.1 7.0 63 3.5 W 11 17 6 9 1018.4 1016.0 0.0
20/09:00am 13.0 10.0 7.5 69 2.8 W 13 20 7 11 1018.6 1016.3 0.0
20/08:30am 12.2 8.9 7.9 75 2.2 W 15 19 8 10 1018.5 1016.2 0.0
20/08:00am 10.9 7.8 7.2 78 1.8 WSW 13 19 7 10 1018.3 1015.9 0.0
20/07:30am 9.4 7.8 8.2 92 0.6 NNW 6 7 3 4 1018.4 1016.0 0.0
20/07:00am 8.0 6.7 7.7 98 0.1 NW 4 6 2 3 1018.0 1015.7 0.0
20/06:30am 6.0 4.3 5.9 99 0.0 NNW 4 7 2 4 1017.8 1015.5 0.0
20/06:00am 5.5 3.1 5.4 99 0.0 NNW 7 9 4 5 1017.7 1015.4 0.0
20/05:30am 5.5 2.8 5.4 99 0.0 NNW 9 11 5 6 1017.6 1015.3 0.0
20/05:00am 6.0 3.8 5.4 96 0.3 WNW 6 7 3 4 1017.6 1015.3 0.0
20/04:30am 7.3 4.9 7.0 98 0.1 W 9 11 5 6 1017.6 1015.3 0.0
20/04:00am 7.3 5.5 7.2 99 0.0 NW 6 7 3 4 1017.7 1015.4 0.0
20/03:30am 6.8 4.9 6.7 99 0.0 NW 6 7 3 4 1017.8 1015.5 0.0
20/03:00am 7.2 5.2 7.1 99 0.0 NW 7 9 4 5 1017.9 1015.6 0.0
20/02:30am 6.5 4.0 6.4 99 0.0 WNW 9 13 5 7 1018.2 1015.8 0.0
20/02:00am 6.3 3.7 6.2 99 0.0 NW 9 9 5 5 1018.5 1016.2 0.0
20/01:30am 6.7 3.4 6.6 99 0.0 WNW 13 17 7 9 1018.6 1016.3 0.0
20/01:00am 6.0 4.7 5.9 99 0.0 NW 2 7 1 4 1018.7 1016.4 0.0
20/12:30am 6.1 5.2 6.0 99 0.0 CALM 0 0 0 0 1018.9 1016.6 0.0
20/12:00am 6.3 5.4 6.2 99 0.0 CALM 0 0 0 0 1019.1 1016.8 0.0
 
Date/Time
EDT
Temp
°C
App
Temp
°C
Dew
Point
Rel
Hum
%
Delta-T
°C
Wind Press
QNH
hPa
Press
MSL
hPa
Rain
since 9 am
mm
Dir
 
Spd
km/h
Gust
km/h
Spd
kts
Gust
kts
19/11:30pm 6.6 4.7 6.5 99 0.0 S 6 7 3 4 1019.2 1016.9 0.0
19/11:00pm 6.9 4.8 6.8 99 0.0 SSW 7 9 4 5 1019.2 1016.9 0.0
19/10:30pm 7.0 5.0 6.9 99 0.0 S 7 9 4 5 1019.2 1016.9 0.0
19/10:00pm 7.8 6.4 7.1 95 0.3 SSE 4 7 2 4 1019.0 1016.7 0.0
19/09:30pm 8.1 6.4 7.7 97 0.2 SSE 6 9 3 5 1018.9 1016.6 0.0
19/09:00pm 7.8 5.4 7.1 95 0.3 SSE 9 13 5 7 1018.6 1016.3 0.0
19/08:30pm 8.7 5.6 7.3 91 0.7 SSE 13 19 7 10 1018.4 1016.0 0.0
19/08:00pm 10.0 6.1 7.3 83 1.3 S 17 22 9 12 1017.8 1015.5 0.0
19/07:30pm 11.8 7.6 7.3 74 2.3 S 19 24 10 13 1017.2 1014.8 0.0
19/07:00pm 13.2 8.2 6.3 63 3.4 SSW 22 30 12 16 1016.6 1014.3 0.0
19/06:30pm 14.2 8.7 5.8 57 4.2 SSW 24 32 13 17 1016.1 1013.8 0.0
19/06:00pm 14.7 8.7 5.2 53 4.7 SW 26 37 14 20 1015.7 1013.3 0.0
19/05:30pm 15.1 9.7 4.5 49 5.1 SW 22 32 12 17 1015.7 1013.3 0.0
19/05:00pm 14.8 9.7 6.1 56 4.4 SSW 22 33 12 18 1015.6 1013.2 0.0
19/04:30pm 15.2 8.8 5.4 52 4.9 SW 28 39 15 21 1015.4 1013.0 0.0
19/04:00pm 15.9 9.2 5.8 51 5.1 SW 30 46 16 25 1015.5 1013.1 0.0
19/03:30pm 15.3 9.8 5.8 53 4.7 SW 24 33 13 18 1015.5 1013.1 0.0
19/03:00pm 14.1 8.4 4.9 54 4.5 SW 24 35 13 19 1015.4 1013.0 0.0
19/02:30pm 13.7 8.5 3.8 51 4.7 SW 20 33 11 18 1015.2 1012.9 0.0
19/02:00pm 12.1 4.6 4.6 60 3.6 WSW 33 41 18 22 1015.6 1013.2 0.0
19/01:30pm 13.2 8.1 4.1 54 4.3 WSW 20 28 11 15 1015.4 1013.0 0.0
19/01:00pm 12.7 5.8 4.4 57 3.9 SW 30 41 16 22 1015.2 1012.9 0.0
19/12:30pm 13.2 6.8 5.4 59 3.8 W 28 35 15 19 1015.2 1012.9 0.0
19/12:00pm 13.8 8.2 3.6 50 4.8 SW 22 30 12 16 1014.9 1012.6 0.0
19/11:30am 13.2 6.7 4.9 57 4.0 WSW 28 39 15 21 1014.6 1012.2 0.0
19/11:00am 13.2 7.2 5.1 58 3.9 WSW 26 37 14 20 1014.6 1012.2 0.0
19/10:30am 13.6 7.2 5.3 57 4.1 WSW 28 43 15 23 1014.5 1012.1 0.0
19/10:18am 12.5 5.9 4.0 56 4.0 WSW 28 48 15 26 1014.6 1012.2 0.0
19/10:00am 12.1 5.9 4.3 59 3.7 WSW 26 33 14 18 1014.9 1012.6 0.0
19/09:30am 11.1 5.3 4.6 64 3.1 WSW 24 33 13 18 1014.7 1012.3 0.0
19/09:00am 11.6 5.6 5.3 65 3.0 SW 26 37 14 20 1014.8 1012.4 -
19/08:30am 9.7 3.7 5.3 74 2.1 WSW 26 35 14 19 1014.5 1012.1 -
19/08:00am 8.9 3.1 4.5 74 2.0 WSW 24 41 13 22 1014.1 1011.7 -
19/07:30am 8.6 5.7 4.8 77 1.8 WSW 9 22 5 12 1013.7 1011.3 -
19/07:00am 8.6 4.9 4.6 76 1.9 WSW 13 20 7 11 1013.4 1011.0 -
19/06:30am 8.2 4.2 5.1 81 1.4 SW 15 26 8 14 1013.0 1010.6 -
19/06:00am 7.5 6.1 5.3 86 1.0 WNW 2 9 1 5 1012.3 1009.9 -
19/05:30am 7.0 5.5 4.8 86 1.0 W 2 6 1 3 1012.0 1009.6 -
19/05:00am 7.6 6.2 5.4 86 1.0 SSW 2 9 1 5 1011.6 1009.2 -
19/04:30am 8.2 5.6 6.2 87 1.0 SW 9 17 5 9 1011.2 1008.7 -
19/04:00am 8.6 4.0 6.6 87 1.0 SW 20 28 11 15 1011.0 1008.6 -
19/03:30am 7.8 3.4 6.7 93 0.5 SW 19 28 10 15 1010.6 1008.2 -
19/03:00am 7.3 3.2 6.1 92 0.6 SW 17 24 9 13 1010.6 1008.2 0.8
19/02:30am 7.7 3.5 5.8 88 0.9 SW 17 26 9 14 1010.7 1008.3 -
19/02:00am 8.0 3.0 6.3 89 0.8 SW 22 32 12 17 1010.9 1008.5 -
19/01:30am 8.4 3.5 6.9 90 0.7 SW 22 32 12 17 1011.0 1008.6 -
19/01:00am 8.8 6.6 8.0 95 0.4 SSW 9 17 5 9 1010.7 1008.3 -
19/12:30am 9.8 7.5 9.0 95 0.4 SW 11 20 6 11 1010.9 1008.5 -
19/12:00am 10.1 7.3 10.0 99 0.1 SSW 15 20 8 11 1010.9 1008.5 -
 
Date/Time
EDT
Temp
°C
App
Temp
°C
Dew
Point
Rel
Hum
%
Delta-T
°C
Wind Press
QNH
hPa
Press
MSL
hPa
Rain
since 9 am
mm
Dir
 
Spd
km/h
Gust
km/h
Spd
kts
Gust
kts
18/11:30pm 10.1 7.3 10.0 99 0.1 SSW 15 19 8 10 1010.9 1008.5 -
18/11:00pm 9.8 7.3 9.7 99 0.1 SSW 13 19 7 10 1010.8 1008.4 -
18/10:30pm 9.5 5.2 9.4 99 0.1 S 22 32 12 17 1010.5 1008.1 -
18/10:00pm 10.2 4.2 8.8 91 0.7 SSW 30 43 16 23 1011.0 1008.6 -
18/09:30pm 12.0 5.5 10.2 89 1.0 S 35 46 19 25 1010.0 1007.5 -
18/09:00pm 12.5 7.5 9.5 82 1.6 S 26 35 14 19 1009.9 1007.4 0.0
18/08:30pm 14.8 9.4 7.8 63 3.6 S 26 39 14 21 1008.7 1006.2 -
18/08:00pm 17.3 13.2 4.6 43 6.3 WNW 15 19 8 10 1007.5 1005.0 -
18/07:30pm 20.1 16.4 4.6 36 7.8 WNW 13 17 7 9 1007.2 1004.7 -
18/07:00pm 20.2 15.1 3.0 32 8.4 WNW 19 32 10 17 1006.7 1004.2 -
18/06:30pm 20.3 15.9 4.8 36 7.9 WNW 17 24 9 13 1006.6 1004.1 -
18/06:00pm 20.4 15.6 5.6 38 7.6 WNW 20 26 11 14 1006.7 1004.2 -
18/05:30pm 21.3 15.3 5.2 35 8.3 WNW 26 35 14 19 1006.2 1003.7 -
18/05:00pm 21.2 15.3 5.6 36 8.1 WNW 26 35 14 19 1006.3 1003.8 -
18/04:30pm 21.2 15.0 4.3 33 8.5 WNW 26 35 14 19 1006.3 1003.8 -
18/04:00pm 22.9 17.1 4.4 30 9.5 NW 24 39 13 21 1006.1 1003.6 -
18/03:41pm 23.4 16.7 3.4 27 10.1 WNW 28 48 15 26 1005.9 1003.4 -

Other Formats:

Comma delimited format used in spreadsheet applications
http://www.bom.gov.au/fwo/IDN60801/IDN60801.94929.axf

JavaScript Object Notation format (JSON) in row-major order
http://www.bom.gov.au/fwo/IDN60801/IDN60801.94929.json